Time;durP1;ratioP1;P1;durP2;ratioP2;P2;SDS_P1;SDS_P2;PMS_P1;PMS_P2;Temp;Humidity;BMP_temperature;BMP_pressure;BME280_temperature;BME280_humidity;BME280_pressure;Samples;Min_cycle;Max_cycle;Signal;HPM_P1;HPM_P2
2021/11/05 00:02:02;;;;;;;3.67;3.20;;;5.40;99.90;;;;;;5009870;28;20194;-74
2021/11/05 00:04:28;;;;;;;3.88;2.90;;;5.50;99.90;;;;;;5009910;28;20210;-74
2021/11/05 00:06:55;;;;;;;4.05;2.60;;;5.50;99.90;;;;;;5008676;28;20222;-74
2021/11/05 00:09:22;;;;;;;3.03;2.67;;;5.50;99.90;;;;;;5009522;28;20736;-74
2021/11/05 00:11:48;;;;;;;4.53;3.13;;;5.40;99.90;;;;;;5008744;28;20627;-73
2021/11/05 00:14:17;;;;;;;3.20;2.90;;;5.50;99.90;;;;;;5009573;28;20194;-75
2021/11/05 00:16:44;;;;;;;4.05;3.38;;;5.50;99.90;;;;;;5008861;28;20222;-74
2021/11/05 00:19:10;;;;;;;3.75;3.33;;;5.40;99.90;;;;;;5009959;28;20206;-74
2021/11/05 00:21:37;;;;;;;3.95;3.25;;;5.40;99.90;;;;;;5009879;28;20206;-74
2021/11/05 00:24:05;;;;;;;4.20;3.70;;;5.40;99.90;;;;;;5009435;28;20206;-73
2021/11/05 00:26:32;;;;;;;3.42;3.10;;;5.30;99.90;;;;;;5008909;28;20230;-74
2021/11/05 00:28:59;;;;;;;4.30;3.90;;;5.30;99.90;;;;;;5009006;28;20218;-74
2021/11/05 00:31:27;;;;;;;3.75;3.28;;;5.30;99.90;;;;;;5009321;28;20257;-74
2021/11/05 00:33:54;;;;;;;3.70;3.40;;;5.30;99.90;;;;;;5009844;28;20213;-74
2021/11/05 00:36:21;;;;;;;4.72;3.92;;;5.30;99.90;;;;;;5008085;28;20233;-74
2021/11/05 00:38:48;;;;;;;4.68;3.42;;;5.40;99.90;;;;;;5008998;28;20281;-74
2021/11/05 00:41:15;;;;;;;4.60;3.65;;;5.30;99.90;;;;;;5008770;28;20682;-74
2021/11/05 00:43:43;;;;;;;3.28;2.97;;;5.30;99.90;;;;;;5008780;28;20213;-74
2021/11/05 00:46:11;;;;;;;3.60;3.30;;;5.40;99.90;;;;;;5008474;28;20701;-74
2021/11/05 00:48:40;;;;;;;3.35;3.05;;;5.40;99.90;;;;;;5007398;28;20666;-74
2021/11/05 00:51:07;;;;;;;3.50;3.20;;;5.40;99.90;;;;;;5009375;28;20633;-74
2021/11/05 00:53:34;;;;;;;3.78;3.47;;;5.40;99.90;;;;;;5008408;28;20666;-72
2021/11/05 00:56:01;;;;;;;3.42;3.13;;;5.40;99.90;;;;;;5007803;28;20218;-74
2021/11/05 00:58:27;;;;;;;3.42;3.13;;;5.40;99.90;;;;;;5009884;28;20266;-74
2021/11/05 01:00:54;;;;;;;3.55;3.25;;;5.30;99.90;;;;;;5008525;28;20672;-74
2021/11/05 01:03:21;;;;;;;3.97;3.50;;;5.40;99.90;;;;;;5008642;28;20221;-74
2021/11/05 01:05:49;;;;;;;3.45;3.17;;;5.40;99.90;;;;;;5008100;28;20233;-74
2021/11/05 01:08:17;;;;;;;3.78;3.35;;;5.40;99.90;;;;;;5008762;28;20209;-74
2021/11/05 01:10:43;;;;;;;3.60;3.30;;;5.40;99.90;;;;;;5008636;28;20230;-74
2021/11/05 01:13:10;;;;;;;3.90;3.30;;;5.40;99.90;;;;;;5009142;28;20203;-74
2021/11/05 01:15:37;;;;;;;3.85;3.13;;;5.40;99.90;;;;;;5009186;28;20230;-74
2021/11/05 01:18:04;;;;;;;4.65;3.00;;;5.40;99.90;;;;;;5008043;28;20202;-74
2021/11/05 01:20:31;;;;;;;3.55;3.08;;;5.50;99.90;;;;;;5009122;28;20302;-74
2021/11/05 01:23:00;;;;;;;3.45;3.15;;;5.50;99.90;;;;;;5008565;28;20217;-74
2021/11/05 01:25:26;;;;;;;3.45;3.15;;;5.50;99.90;;;;;;5008219;28;20209;-74
2021/11/05 01:27:53;;;;;;;3.47;3.10;;;5.50;99.90;;;;;;5007942;28;20576;-74
2021/11/05 01:30:20;;;;;;;3.55;3.25;;;5.50;99.90;;;;;;5008429;28;20230;-74
2021/11/05 01:32:49;;;;;;;3.95;3.60;;;5.50;99.90;;;;;;5007552;28;20210;-74
2021/11/05 01:35:17;;;;;;;3.15;2.95;;;5.50;99.90;;;;;;5008814;28;20217;-74
2021/11/05 01:37:44;;;;;;;3.53;3.22;;;5.50;99.90;;;;;;5186078;22;20236;-69
2021/11/05 01:40:14;;;;;;;3.47;3.15;;;5.50;99.90;;;;;;5026340;28;20584;-69
2021/11/05 01:42:42;;;;;;;3.58;3.28;;;5.50;99.90;;;;;;5029959;28;20202;-69
2021/11/05 01:45:11;;;;;;;3.97;3.58;;;5.50;99.90;;;;;;5028537;28;20202;-69
2021/11/05 01:47:39;;;;;;;4.00;3.60;;;5.50;99.90;;;;;;5026227;28;20217;-69
2021/11/05 01:50:07;;;;;;;3.45;3.15;;;5.50;99.90;;;;;;5030331;28;20264;-69
2021/11/05 01:52:34;;;;;;;3.55;3.25;;;5.50;99.90;;;;;;5030261;28;20201;-69
2021/11/05 01:55:00;;;;;;;4.68;3.00;;;5.50;99.90;;;;;;5030017;28;20553;-69
2021/11/05 01:57:28;;;;;;;2.75;2.55;;;5.50;99.90;;;;;;5029924;28;20226;-69
2021/11/05 01:59:55;;;;;;;3.58;3.15;;;5.50;99.90;;;;;;5030756;28;20200;-69
2021/11/05 02:02:22;;;;;;;3.20;2.90;;;5.50;99.90;;;;;;5034368;28;20581;-69
2021/11/05 02:04:49;;;;;;;3.10;2.80;;;5.60;99.90;;;;;;5033855;28;20217;-69
2021/11/05 02:07:16;;;;;;;3.50;3.20;;;5.50;99.90;;;;;;5033516;28;20221;-69
2021/11/05 02:09:45;;;;;;;3.78;3.47;;;5.50;99.90;;;;;;5033771;28;20218;-69
2021/11/05 02:12:13;;;;;;;3.40;3.10;;;5.60;99.90;;;;;;5034252;28;20205;-69
2021/11/05 02:14:44;;;;;;;3.85;3.22;;;5.50;99.90;;;;;;5032883;28;20758;-69
2021/11/05 02:17:11;;;;;;;3.58;3.28;;;5.50;99.90;;;;;;5013681;28;20776;-69
2021/11/05 02:19:38;;;;;;;4.00;3.42;;;5.50;99.90;;;;;;5014738;28;20206;-69
2021/11/05 02:22:06;;;;;;;3.40;3.03;;;5.40;99.90;;;;;;5014017;28;20214;-69
2021/11/05 02:24:34;;;;;;;3.63;3.28;;;5.40;99.90;;;;;;5014675;28;20214;-70
2021/11/05 02:27:01;;;;;;;3.45;3.15;;;5.30;99.90;;;;;;5014077;28;20241;-69
2021/11/05 02:29:30;;;;;;;3.80;3.50;;;5.30;99.90;;;;;;5015061;28;20222;-69
2021/11/05 02:31:58;;;;;;;4.55;3.17;;;5.30;99.90;;;;;;5014218;28;20202;-69
2021/11/05 02:34:25;;;;;;;3.13;2.83;;;5.30;99.90;;;;;;5014497;28;20214;-69
2021/11/05 02:36:52;;;;;;;3.20;2.90;;;5.40;99.90;;;;;;5013516;28;20230;-69
2021/11/05 02:39:20;;;;;;;4.65;3.50;;;5.40;99.90;;;;;;5014169;28;20214;-69
2021/11/05 02:41:48;;;;;;;3.60;3.30;;;5.40;99.90;;;;;;5013858;28;20202;-69
2021/11/05 02:44:16;;;;;;;3.45;3.15;;;5.30;99.90;;;;;;5014012;28;20199;-69
2021/11/05 02:46:43;;;;;;;3.67;3.30;;;5.30;99.90;;;;;;5013008;28;20729;-69
2021/11/05 02:49:13;;;;;;;3.55;3.25;;;5.30;99.90;;;;;;5020760;28;20209;-69
2021/11/05 02:51:40;;;;;;;3.95;3.38;;;5.40;99.90;;;;;;5033587;28;20206;-69
2021/11/05 02:54:07;;;;;;;3.30;3.00;;;5.40;99.90;;;;;;5033086;28;20206;-69
2021/11/05 02:56:36;;;;;;;4.13;3.72;;;5.40;99.90;;;;;;5032990;28;20224;-69
2021/11/05 02:59:03;;;;;;;4.13;3.20;;;5.40;99.90;;;;;;5033229;28;20252;-69
2021/11/05 03:01:30;;;;;;;3.60;3.30;;;5.40;99.90;;;;;;5033222;28;20224;-69
2021/11/05 03:04:01;;;;;;;3.70;3.40;;;5.40;99.90;;;;;;5032981;28;20209;-69
2021/11/05 03:06:33;;;;;;;4.43;4.03;;;5.40;99.90;;;;;;5032441;28;20321;-69
2021/11/05 03:09:00;;;;;;;4.15;3.75;;;5.30;99.90;;;;;;5033105;28;20212;-69
2021/11/05 03:11:26;;;;;;;3.83;3.53;;;5.30;99.90;;;;;;5032495;28;20578;-69
2021/11/05 03:13:54;;;;;;;3.72;3.33;;;5.20;99.90;;;;;;5032765;28;20202;-69
2021/11/05 03:16:21;;;;;;;6.82;4.38;;;5.30;99.90;;;;;;5032366;28;20226;-69
2021/11/05 03:18:48;;;;;;;3.72;3.42;;;5.30;99.90;;;;;;5032553;28;20206;-69
2021/11/05 03:21:15;;;;;;;4.35;3.55;;;5.30;99.90;;;;;;5032940;28;20205;-69
2021/11/05 03:23:41;;;;;;;4.00;3.65;;;5.20;99.90;;;;;;5032468;28;20216;-69
2021/11/05 03:26:08;;;;;;;3.50;3.20;;;5.20;99.90;;;;;;5032221;28;20228;-69
2021/11/05 03:28:35;;;;;;;4.20;3.60;;;5.20;99.90;;;;;;5032648;28;20202;-69
2021/11/05 03:31:03;;;;;;;3.85;3.50;;;5.20;99.90;;;;;;5032389;28;20225;-69
2021/11/05 03:33:30;;;;;;;3.65;3.35;;;5.20;99.90;;;;;;5032731;28;20202;-69
2021/11/05 03:35:56;;;;;;;3.13;2.88;;;5.20;99.90;;;;;;5031525;28;20827;-69
2021/11/05 03:38:23;;;;;;;3.60;3.30;;;5.20;99.90;;;;;;5032398;28;20258;-69
2021/11/05 03:40:50;;;;;;;3.35;3.05;;;5.30;99.90;;;;;;5032179;28;20619;-69
2021/11/05 03:43:17;;;;;;;3.50;3.20;;;5.30;99.90;;;;;;5032675;28;20205;-69
2021/11/05 03:45:44;;;;;;;3.20;2.92;;;5.30;99.90;;;;;;5031743;28;20225;-69
2021/11/05 03:48:12;;;;;;;3.15;2.88;;;5.30;99.90;;;;;;5031647;28;20205;-69
2021/11/05 03:50:40;;;;;;;3.65;3.35;;;5.40;99.90;;;;;;5032064;28;20228;-69
2021/11/05 03:53:06;;;;;;;3.20;2.92;;;5.40;99.90;;;;;;5031702;28;20213;-69
2021/11/05 03:55:33;;;;;;;3.55;2.60;;;5.40;99.90;;;;;;5032018;28;20216;-69
2021/11/05 03:58:00;;;;;;;3.22;2.92;;;5.40;99.90;;;;;;5031140;28;20998;-69
2021/11/05 04:00:26;;;;;;;3.88;3.40;;;5.40;99.90;;;;;;5032232;28;20197;-69
2021/11/05 04:02:53;;;;;;;3.15;2.85;;;5.40;99.90;;;;;;5031887;28;20216;-69
2021/11/05 04:05:21;;;;;;;3.45;3.15;;;5.40;99.90;;;;;;5031433;28;20228;-69
2021/11/05 04:07:51;;;;;;;4.47;3.22;;;5.40;99.90;;;;;;5031635;28;20197;-69
2021/11/05 04:10:17;;;;;;;3.28;2.97;;;5.40;99.90;;;;;;5031823;28;20313;-69
2021/11/05 04:12:44;;;;;;;3.63;2.88;;;5.40;99.90;;;;;;5031604;28;20579;-69
2021/11/05 04:15:11;;;;;;;3.45;3.15;;;5.40;99.90;;;;;;5031036;28;20205;-69
2021/11/05 04:17:38;;;;;;;3.30;3.00;;;5.40;99.90;;;;;;5031042;28;20225;-69
2021/11/05 04:20:06;;;;;;;4.47;2.92;;;5.40;99.90;;;;;;5031385;28;20710;-69
2021/11/05 04:22:34;;;;;;;2.97;2.65;;;5.50;99.90;;;;;;5031292;28;20669;-69
2021/11/05 04:25:01;;;;;;;3.53;3.22;;;5.50;99.90;;;;;;5031224;28;20213;-69
2021/11/05 04:27:27;;;;;;;3.30;3.03;;;5.40;99.90;;;;;;5030706;28;20229;-69
2021/11/05 04:29:54;;;;;;;2.95;2.67;;;5.40;99.90;;;;;;5031082;28;20235;-69
2021/11/05 04:32:21;;;;;;;3.50;3.00;;;5.40;99.90;;;;;;5031056;28;20217;-69
2021/11/05 04:34:48;;;;;;;3.45;3.15;;;5.40;99.90;;;;;;5031834;28;20209;-69
2021/11/05 04:37:15;;;;;;;3.00;2.70;;;5.40;99.90;;;;;;5020316;28;20219;-69
2021/11/05 04:39:43;;;;;;;3.67;3.38;;;5.40;99.90;;;;;;5017843;28;20603;-69
2021/11/05 04:42:10;;;;;;;4.82;2.92;;;5.40;99.90;;;;;;5029817;28;20205;-69
2021/11/05 04:44:37;;;;;;;3.70;3.38;;;5.40;99.90;;;;;;5031545;28;20209;-69
2021/11/05 04:47:04;;;;;;;3.05;2.47;;;5.40;99.90;;;;;;5031322;28;20735;-69
2021/11/05 04:49:30;;;;;;;3.58;3.00;;;5.40;99.90;;;;;;5031374;28;20209;-69
2021/11/05 04:51:58;;;;;;;6.22;3.20;;;5.40;99.90;;;;;;5030992;28;20221;-69
2021/11/05 04:54:25;;;;;;;3.95;3.10;;;5.40;99.90;;;;;;5027313;28;20205;-69
2021/11/05 04:56:53;;;;;;;3.10;2.90;;;5.40;99.90;;;;;;5027068;28;20226;-69
2021/11/05 04:59:20;;;;;;;3.78;3.47;;;5.40;99.90;;;;;;5026756;28;20206;-69
2021/11/05 05:01:47;;;;;;;6.15;2.85;;;5.40;99.90;;;;;;5027938;28;20198;-69
2021/11/05 05:04:16;;;;;;;2.95;2.75;;;5.50;99.90;;;;;;5031052;28;20205;-70
2021/11/05 05:06:43;;;;;;;2.95;2.67;;;5.50;99.90;;;;;;5030411;28;20221;-69
2021/11/05 05:09:11;;;;;;;3.20;2.83;;;5.50;99.90;;;;;;5025937;28;20692;-69
2021/11/05 05:11:38;;;;;;;3.17;2.97;;;5.50;99.90;;;;;;5018351;28;20218;-70
2021/11/05 05:14:06;;;;;;;3.10;2.80;;;5.50;99.90;;;;;;5018661;28;20240;-69
2021/11/05 05:16:32;;;;;;;3.17;2.78;;;5.50;99.90;;;;;;5020086;28;20214;-69
2021/11/05 05:19:00;;;;;;;3.13;2.90;;;5.50;99.90;;;;;;5020735;28;20205;-70
2021/11/05 05:21:28;;;;;;;2.72;2.53;;;5.50;99.90;;;;;;5018821;28;20190;-70
2021/11/05 05:23:54;;;;;;;3.53;3.22;;;5.50;99.90;;;;;;5018628;28;20194;-70
2021/11/05 05:26:21;;;;;;;3.40;3.10;;;5.50;99.90;;;;;;5022134;28;20221;-69
2021/11/05 05:28:48;;;;;;;3.10;2.80;;;5.50;99.90;;;;;;5029802;28;20206;-70
2021/11/05 05:31:16;;;;;;;3.08;2.85;;;5.50;99.90;;;;;;5030118;28;20264;-70
2021/11/05 05:33:43;;;;;;;7.85;3.13;;;5.50;99.90;;;;;;5029158;28;20688;-70
2021/11/05 05:36:11;;;;;;;4.30;3.13;;;5.50;99.90;;;;;;5027892;28;20232;-69
2021/11/05 05:38:38;;;;;;;2.85;2.65;;;5.50;99.90;;;;;;5032728;28;20216;-69
2021/11/05 05:41:05;;;;;;;3.30;3.00;;;5.50;99.90;;;;;;5029640;28;20194;-72
2021/11/05 05:43:32;;;;;;;3.90;3.50;;;5.50;99.90;;;;;;5033717;28;20216;-69
2021/11/05 05:45:59;;;;;;;3.20;2.90;;;5.60;99.90;;;;;;5033061;28;20218;-70
2021/11/05 05:48:27;;;;;;;3.65;3.35;;;5.50;99.90;;;;;;5034046;28;20579;-70
2021/11/05 05:50:54;;;;;;;3.17;2.92;;;5.50;99.90;;;;;;5033517;28;20225;-69
2021/11/05 05:53:21;;;;;;;3.33;3.03;;;5.50;99.90;;;;;;5034022;28;20205;-69
2021/11/05 05:55:48;;;;;;;4.80;3.75;;;5.40;99.90;;;;;;5032985;28;20249;-70
2021/11/05 05:58:15;;;;;;;3.80;3.50;;;5.40;99.90;;;;;;5033942;28;20285;-69
2021/11/05 06:00:42;;;;;;;3.45;3.15;;;5.50;99.90;;;;;;5033876;28;20289;-70
2021/11/05 06:03:09;;;;;;;5.55;3.40;;;5.50;99.90;;;;;;5033323;28;20248;-69
2021/11/05 06:05:37;;;;;;;3.92;3.58;;;5.50;99.90;;;;;;5033701;28;20615;-69
2021/11/05 06:08:05;;;;;;;3.50;3.20;;;5.50;99.90;;;;;;5032773;28;20227;-69
2021/11/05 06:10:32;;;;;;;3.88;3.55;;;5.50;99.90;;;;;;5033702;28;20217;-69
2021/11/05 06:12:58;;;;;;;3.75;3.45;;;5.50;99.90;;;;;;5033291;28;20208;-69
2021/11/05 06:15:25;;;;;;;4.65;4.25;;;5.50;99.90;;;;;;5033417;28;20225;-69
2021/11/05 06:17:52;;;;;;;4.45;3.58;;;5.50;99.90;;;;;;5032732;28;20226;-70
2021/11/05 06:20:19;;;;;;;4.10;3.70;;;5.50;99.90;;;;;;5033088;28;20620;-69
2021/11/05 06:22:47;;;;;;;6.05;4.25;;;5.50;99.90;;;;;;5033110;28;20700;-70
2021/11/05 06:25:14;;;;;;;4.15;3.58;;;5.50;99.90;;;;;;5032903;28;20209;-70
2021/11/05 06:27:41;;;;;;;3.90;3.60;;;5.50;99.90;;;;;;5032652;28;20228;-69
2021/11/05 06:30:08;;;;;;;5.10;4.28;;;5.50;99.90;;;;;;5033020;28;20206;-69
2021/11/05 06:32:35;;;;;;;4.30;3.90;;;5.50;99.90;;;;;;5032745;28;20225;-69
2021/11/05 06:35:02;;;;;;;4.30;3.90;;;5.50;99.90;;;;;;5032809;28;20631;-70
2021/11/05 06:37:29;;;;;;;4.50;3.80;;;5.50;99.90;;;;;;5032236;28;20242;-69
2021/11/05 06:39:57;;;;;;;6.43;3.80;;;5.60;99.90;;;;;;5032916;28;20209;-69
2021/11/05 06:42:25;;;;;;;3.92;3.63;;;5.60;99.90;;;;;;5033193;28;20209;-70
2021/11/05 06:44:52;;;;;;;4.13;3.78;;;5.60;99.90;;;;;;5032654;28;20201;-70
2021/11/05 06:47:19;;;;;;;4.63;4.22;;;5.50;99.90;;;;;;5031019;28;20222;-70
2021/11/05 06:49:46;;;;;;;4.65;4.15;;;5.50;99.90;;;;;;5032455;28;20202;-70
2021/11/05 06:52:13;;;;;;;5.30;4.85;;;5.50;99.90;;;;;;5032804;28;20226;-69
2021/11/05 06:54:40;;;;;;;4.65;4.25;;;5.50;99.90;;;;;;5032590;28;20209;-70
2021/11/05 06:57:09;;;;;;;5.05;4.63;;;5.50;99.90;;;;;;5032014;28;20790;-69
2021/11/05 06:59:36;;;;;;;4.70;4.30;;;5.50;99.90;;;;;;5032592;28;20769;-70
2021/11/05 07:02:05;;;;;;;5.70;4.32;;;5.50;99.90;;;;;;5030667;28;20206;-70
2021/11/05 07:04:32;;;;;;;4.63;4.13;;;5.60;99.90;;;;;;5032596;28;20234;-69
2021/11/05 07:06:59;;;;;;;4.10;3.80;;;5.60;99.90;;;;;;5031293;28;20226;-70
2021/11/05 07:09:26;;;;;;;6.15;4.68;;;5.60;99.90;;;;;;5032526;28;20209;-70
2021/11/05 07:11:53;;;;;;;4.40;4.00;;;5.60;99.90;;;;;;5031643;28;20747;-70
2021/11/05 07:14:21;;;;;;;5.25;3.85;;;5.70;99.90;;;;;;5032506;28;20202;-69
2021/11/05 07:16:48;;;;;;;4.72;4.22;;;5.70;99.90;;;;;;5031372;28;20233;-69
2021/11/05 07:19:15;;;;;;;4.55;4.05;;;5.70;99.90;;;;;;5032327;28;20197;-69
2021/11/05 07:21:42;;;;;;;4.90;3.70;;;5.80;99.90;;;;;;5032253;28;20201;-69
2021/11/05 07:24:09;;;;;;;4.30;3.90;;;5.80;99.90;;;;;;5031795;28;20202;-69
2021/11/05 07:26:40;;;;;;;5.40;3.45;;;5.90;99.90;;;;;;5031539;28;20226;-69
2021/11/05 07:29:11;;;;;;;4.40;4.00;;;5.90;99.90;;;;;;5031763;28;20205;-69
2021/11/05 07:31:39;;;;;;;4.72;3.72;;;5.90;99.90;;;;;;5031943;28;20280;-69
2021/11/05 07:34:06;;;;;;;4.10;3.70;;;6.00;99.90;;;;;;5031618;28;20209;-70
2021/11/05 07:36:33;;;;;;;3.75;3.50;;;6.00;99.90;;;;;;5031315;28;20221;-70
2021/11/05 07:39:00;;;;;;;3.95;3.58;;;6.00;99.90;;;;;;5095516;22;20233;-75
2021/11/05 07:41:27;;;;;;;3.30;3.00;;;6.00;99.90;;;;;;5009713;28;20195;-75
2021/11/05 07:43:54;;;;;;;3.35;3.05;;;6.00;99.90;;;;;;5011194;28;20216;-75
2021/11/05 07:46:21;;;;;;;5.97;3.33;;;6.00;99.90;;;;;;5011467;28;20276;-74
2021/11/05 07:48:50;;;;;;;3.45;3.15;;;6.10;99.90;;;;;;5011773;28;20214;-72
2021/11/05 07:51:17;;;;;;;3.47;3.17;;;6.10;99.90;;;;;;5011605;28;20229;-72
2021/11/05 07:53:44;;;;;;;3.08;2.78;;;6.10;99.90;;;;;;5011499;28;20203;-72
2021/11/05 07:56:10;;;;;;;3.00;2.70;;;6.10;99.90;;;;;;5011330;28;20223;-72
2021/11/05 07:58:37;;;;;;;2.60;2.40;;;6.10;99.90;;;;;;5011005;28;20673;-72
2021/11/05 08:01:04;;;;;;;4.18;3.30;;;6.20;99.90;;;;;;5011780;28;20199;-72
2021/11/05 08:03:31;;;;;;;2.83;2.45;;;6.20;99.90;;;;;;5011236;28;20212;-72
2021/11/05 08:05:59;;;;;;;2.88;2.58;;;6.30;99.90;;;;;;5016358;28;20222;-72
2021/11/05 08:08:26;;;;;;;2.60;2.40;;;6.30;99.90;;;;;;5011321;28;20203;-72
2021/11/05 08:10:53;;;;;;;2.47;2.28;;;6.40;99.90;;;;;;5023813;28;20205;-72
2021/11/05 08:13:20;;;;;;;3.65;2.35;;;6.40;99.90;;;;;;5031236;28;20202;-72
2021/11/05 08:15:47;;;;;;;2.55;2.35;;;6.40;99.90;;;;;;5030088;28;20230;-72
2021/11/05 08:18:14;;;;;;;2.50;2.20;;;6.50;99.90;;;;;;5031248;28;20215;-72
2021/11/05 08:20:41;;;;;;;2.72;2.50;;;6.50;99.90;;;;;;5030944;28;20296;-72
2021/11/05 08:23:09;;;;;;;2.30;2.10;;;6.60;99.90;;;;;;5031191;28;20198;-73
2021/11/05 08:25:36;;;;;;;3.17;2.88;;;6.70;99.90;;;;;;5030729;28;20202;-72
2021/11/05 08:28:03;;;;;;;2.30;2.10;;;6.70;99.90;;;;;;5030591;28;20197;-73
2021/11/05 08:30:30;;;;;;;3.17;2.40;;;6.80;99.90;;;;;;5030827;28;20208;-73
2021/11/05 08:32:59;;;;;;;2.13;1.90;;;6.80;99.90;;;;;;5030533;28;20613;-73
2021/11/05 08:35:28;;;;;;;2.58;2.38;;;6.80;99.90;;;;;;5030783;28;20691;-73
2021/11/05 08:37:56;;;;;;;2.05;1.83;;;6.80;99.90;;;;;;5029899;28;20218;-72
2021/11/05 08:40:24;;;;;;;2.78;2.35;;;6.90;99.90;;;;;;5031238;28;20584;-73
2021/11/05 08:42:51;;;;;;;2.47;2.28;;;6.90;99.90;;;;;;5030138;28;20212;-73
2021/11/05 08:45:18;;;;;;;3.45;2.15;;;6.90;99.90;;;;;;5030521;28;20205;-73
2021/11/05 08:47:45;;;;;;;2.53;2.33;;;7.00;99.90;;;;;;5030177;28;20206;-73
2021/11/05 08:50:15;;;;;;;4.15;2.35;;;7.00;99.90;;;;;;5030460;28;20281;-73
2021/11/05 08:52:42;;;;;;;2.30;2.10;;;7.10;99.90;;;;;;5030299;28;20221;-73
2021/11/05 08:55:10;;;;;;;2.30;2.05;;;7.10;99.90;;;;;;5030237;28;20224;-73
2021/11/05 08:57:39;;;;;;;3.70;2.15;;;7.10;99.90;;;;;;5029489;28;20226;-73
2021/11/05 09:00:09;;;;;;;2.83;2.08;;;7.10;99.90;;;;;;5030225;28;20213;-73
2021/11/05 09:02:36;;;;;;;2.45;2.00;;;7.10;99.90;;;;;;5028582;28;20202;-73
2021/11/05 09:05:03;;;;;;;2.63;2.42;;;7.20;99.90;;;;;;5030385;28;20677;-73
2021/11/05 09:07:30;;;;;;;3.85;2.10;;;7.20;99.90;;;;;;5029276;28;20232;-73
2021/11/05 09:09:57;;;;;;;2.30;1.80;;;7.30;99.90;;;;;;5029721;28;20209;-73
2021/11/05 09:12:24;;;;;;;2.95;2.10;;;7.30;99.90;;;;;;5029978;28;20217;-73
2021/11/05 09:14:52;;;;;;;2.35;1.90;;;7.40;99.90;;;;;;5030011;28;20205;-74
2021/11/05 09:17:19;;;;;;;2.05;1.90;;;7.40;99.90;;;;;;5029990;28;20225;-74
2021/11/05 09:19:46;;;;;;;2.10;1.90;;;7.40;99.90;;;;;;5029698;28;20202;-74
2021/11/05 09:22:13;;;;;;;2.83;1.70;;;7.50;99.90;;;;;;5030326;28;20660;-74
2021/11/05 09:24:39;;;;;;;1.83;1.67;;;7.60;99.90;;;;;;5021523;28;20205;-74
2021/11/05 09:27:06;;;;;;;1.70;1.60;;;7.70;99.90;;;;;;5028325;28;20217;-74
2021/11/05 09:29:33;;;;;;;2.88;1.80;;;7.70;99.90;;;;;;5028256;28;20205;-74
2021/11/05 09:32:01;;;;;;;2.35;1.70;;;7.80;99.90;;;;;;5028227;28;20747;-73
2021/11/05 09:34:31;;;;;;;2.00;1.80;;;8.00;99.90;;;;;;5028651;28;20209;-73
2021/11/05 09:36:59;;;;;;;3.05;2.08;;;8.10;99.90;;;;;;5027815;28;20316;-74
2021/11/05 09:39:26;;;;;;;2.50;2.30;;;8.30;99.90;;;;;;5028163;28;20248;-74
2021/11/05 09:41:53;;;;;;;3.30;1.92;;;8.70;99.90;;;;;;5027951;28;20202;-74
2021/11/05 09:44:20;;;;;;;2.13;1.90;;;9.40;99.90;;;;;;5028777;28;20672;-73
2021/11/05 09:46:48;;;;;;;2.45;2.05;;;9.70;99.90;;;;;;5027295;28;20229;-73
2021/11/05 09:49:16;;;;;;;2.38;1.95;;;9.90;99.90;;;;;;5028711;28;20210;-73
2021/11/05 09:51:43;;;;;;;1.98;1.77;;;9.70;99.90;;;;;;5028509;28;20222;-73
2021/11/05 09:54:11;;;;;;;1.85;1.73;;;9.50;99.90;;;;;;5028016;28;20205;-73
2021/11/05 09:56:38;;;;;;;1.90;1.80;;;9.30;99.90;;;;;;5027785;28;20620;-73
2021/11/05 09:59:07;;;;;;;2.70;1.85;;;9.10;99.90;;;;;;5028353;28;20576;-73
2021/11/05 10:01:34;;;;;;;2.22;2.00;;;9.00;99.90;;;;;;5027940;28;20305;-74
2021/11/05 10:04:01;;;;;;;4.47;2.17;;;8.90;99.90;;;;;;5028698;28;20212;-73
2021/11/05 10:06:29;;;;;;;2.53;1.98;;;8.80;99.90;;;;;;5027421;28;20230;-73
2021/11/05 10:08:56;;;;;;;2.60;1.80;;;8.80;99.90;;;;;;5027851;28;20213;-73
2021/11/05 10:11:27;;;;;;;2.38;2.15;;;8.90;99.90;;;;;;5028309;28;20210;-73
2021/11/05 10:13:54;;;;;;;3.20;2.20;;;9.10;99.90;;;;;;5028493;28;20209;-73
2021/11/05 10:16:24;;;;;;;2.22;2.00;;;9.30;99.90;;;;;;5027510;28;20225;-73
2021/11/05 10:18:56;;;;;;;2.33;2.17;;;9.30;99.90;;;;;;5028165;28;20209;-73
2021/11/05 10:21:24;;;;;;;2.60;2.40;;;9.30;99.90;;;;;;5029774;28;20210;-73
2021/11/05 10:23:52;;;;;;;2.72;2.30;;;9.30;99.90;;;;;;5030959;28;20684;-73
2021/11/05 10:26:25;;;;;;;2.08;1.88;;;9.30;99.90;;;;;;5031568;28;20217;-73
2021/11/05 10:28:52;;;;;;;2.47;1.80;;;9.30;99.90;;;;;;5031521;28;20301;-73
2021/11/05 10:31:19;;;;;;;2.60;2.13;;;9.20;99.90;;;;;;5031563;28;20206;-73
2021/11/05 10:33:48;;;;;;;2.05;1.95;;;9.20;99.90;;;;;;5032735;28;20222;-73
2021/11/05 10:36:18;;;;;;;4.65;1.90;;;9.10;99.90;;;;;;5030149;28;20244;-74
2021/11/05 10:38:47;;;;;;;1.80;1.70;;;9.00;99.90;;;;;;5045869;28;20213;-74
2021/11/05 10:41:18;;;;;;;2.72;2.45;;;8.90;99.90;;;;;;5052625;28;20673;-74
2021/11/05 10:43:48;;;;;;;2.40;2.20;;;8.80;99.90;;;;;;5044072;28;20202;-74
2021/11/05 10:46:27;;;;;;;2.42;2.13;;;8.80;99.90;;;;;;5012524;28;20731;-74
2021/11/05 10:48:56;;;;;;;2.20;1.70;;;8.80;99.90;;;;;;5012986;28;20210;-74
2021/11/05 10:51:25;;;;;;;4.32;1.80;;;8.80;99.90;;;;;;5031284;28;20201;-74
2021/11/05 10:53:53;;;;;;;2.50;2.08;;;8.90;99.90;;;;;;5052564;28;20224;-74
2021/11/05 10:56:24;;;;;;;1.77;1.50;;;9.00;99.90;;;;;;5052522;28;20723;-74
2021/11/05 10:58:57;;;;;;;2.28;2.08;;;9.40;99.90;;;;;;5053701;28;20201;-74
2021/11/05 11:01:26;;;;;;;3.05;1.80;;;10.60;99.90;;;;;;5047222;28;20213;-74
2021/11/05 11:03:55;;;;;;;1.90;1.70;;;12.20;99.90;;;;;;5039512;28;20197;-74
2021/11/05 11:06:24;;;;;;;2.60;1.70;;;12.90;99.90;;;;;;5018320;28;20226;-73
2021/11/05 11:08:52;;;;;;;1.85;1.75;;;12.70;99.90;;;;;;5022350;28;20500;-74
2021/11/05 11:11:26;;;;;;;1.70;1.60;;;12.20;99.90;;;;;;5051754;28;20270;-73
2021/11/05 11:13:56;;;;;;;2.25;2.00;;;11.50;99.90;;;;;;5051600;28;20224;-74
2021/11/05 11:16:26;;;;;;;2.10;1.90;;;11.10;99.90;;;;;;5050981;28;20742;-74
2021/11/05 11:18:59;;;;;;;5.03;2.15;;;10.60;99.90;;;;;;5051666;28;20200;-74
2021/11/05 11:21:28;;;;;;;3.00;2.30;;;10.30;99.90;;;;;;5051683;28;20505;-74
2021/11/05 11:23:56;;;;;;;2.58;2.38;;;10.10;99.90;;;;;;5051847;28;20205;-74
2021/11/05 11:26:24;;;;;;;4.95;3.13;;;9.80;99.90;;;;;;5051161;28;20240;-74
2021/11/05 11:28:51;;;;;;;3.70;2.83;;;9.70;99.90;;;;;;5050954;28;20548;-74
2021/11/05 11:31:19;;;;;;;4.35;3.05;;;9.50;99.90;;;;;;5052371;28;20212;-74
2021/11/05 11:33:47;;;;;;;2.88;2.60;;;9.30;99.90;;;;;;5049946;28;20217;-74
2021/11/05 11:36:15;;;;;;;3.67;2.80;;;9.20;99.90;;;;;;5050821;28;20232;-74
2021/11/05 11:38:42;;;;;;;3.50;3.20;;;9.20;99.90;;;;;;5050904;28;20208;-74
2021/11/05 11:41:10;;;;;;;4.90;3.88;;;9.10;99.90;;;;;;5050892;28;20202;-74
2021/11/05 11:43:39;;;;;;;4.07;3.67;;;9.00;99.90;;;;;;5050999;28;20197;-73
2021/11/05 11:46:07;;;;;;;3.97;3.67;;;9.00;99.90;;;;;;5050487;28;20225;-74
2021/11/05 11:48:55;;;;;;;4.93;4.40;;;8.90;99.90;;;;;;5050969;28;20219;-74
2021/11/05 11:51:32;;;;;;;4.40;4.00;;;8.90;99.90;;;;;;5045011;28;20262;-73
2021/11/05 11:54:03;;;;;;;7.43;4.50;;;8.90;99.90;;;;;;5050674;28;20225;-73
2021/11/05 11:56:36;;;;;;;8.60;4.78;;;8.90;99.90;;;;;;5049905;28;20244;-73
2021/11/05 11:59:07;;;;;;;5.63;4.43;;;8.80;99.90;;;;;;5050559;28;20197;-73
2021/11/05 12:01:38;;;;;;;5.00;4.50;;;8.80;99.90;;;;;;5050586;28;20204;-74
2021/11/05 12:04:07;;;;;;;6.95;4.07;;;8.80;99.90;;;;;;5049994;28;20243;-74
2021/11/05 12:06:59;;;;;;;7.00;4.43;;;8.80;99.90;;;;;;5050314;28;20601;-74
2021/11/05 12:09:27;;;;;;;4.45;4.05;;;8.90;99.90;;;;;;5050679;28;20222;-74
2021/11/05 12:12:30;;;;;;;6.25;3.90;;;8.90;99.90;;;;;;5050191;28;20217;-74
2021/11/05 12:15:16;;;;;;;4.93;4.00;;;8.90;99.90;;;;;;5043676;28;20207;-74
2021/11/05 12:18:06;;;;;;;4.53;4.13;;;8.90;99.90;;;;;;5009733;28;20226;-74
2021/11/05 12:20:35;;;;;;;6.60;4.78;;;8.90;99.90;;;;;;5010363;28;20202;-74
2021/11/05 12:23:20;;;;;;;4.85;4.35;;;8.90;99.90;;;;;;5010291;28;20301;-74
2021/11/05 12:25:50;;;;;;;5.63;4.45;;;9.00;99.90;;;;;;5009988;28;20236;-74
2021/11/05 12:28:19;;;;;;;4.80;4.30;;;9.00;99.90;;;;;;5010101;28;20202;-74
2021/11/05 12:30:49;;;;;;;4.60;4.20;;;9.10;99.90;;;;;;5011695;28;20216;-74
2021/11/05 12:33:34;;;;;;;4.65;4.20;;;9.20;99.90;;;;;;5012570;28;20232;-74
2021/11/05 12:36:05;;;;;;;4.60;4.10;;;9.40;99.90;;;;;;5009874;28;20410;-74
2021/11/05 12:38:53;;;;;;;4.68;4.18;;;9.50;99.90;;;;;;5010318;28;20221;-74
2021/11/05 12:41:21;;;;;;;4.32;3.38;;;9.70;99.90;;;;;;5010284;28;20211;-74
2021/11/05 12:43:48;;;;;;;4.15;3.40;;;9.90;99.90;;;;;;5010662;28;20829;-74
2021/11/05 12:46:23;;;;;;;4.00;3.60;;;10.10;99.90;;;;;;5009336;28;20825;-74
2021/11/05 12:49:00;;;;;;;4.53;4.10;;;10.20;99.90;;;;;;5010401;28;20215;-74
2021/11/05 12:51:32;;;;;;;6.28;3.70;;;10.10;99.90;;;;;;5011316;28;20210;-74
2021/11/05 12:54:07;;;;;;;5.13;4.20;;;10.10;99.90;;;;;;5010419;28;20682;-74
2021/11/05 12:56:36;;;;;;;5.00;4.07;;;10.10;99.90;;;;;;5009623;28;20230;-74
2021/11/05 12:59:08;;;;;;;5.43;3.83;;;10.10;99.90;;;;;;5010350;28;20210;-73
2021/11/05 13:01:38;;;;;;;5.13;4.00;;;10.00;99.90;;;;;;5019475;28;20202;-74